createdAt,value
2019-04-25T00:01:57.333Z,14.45
2019-04-25T00:04:42.611Z,20.23
2019-04-25T00:07:11.954Z,17.90
2019-04-25T00:09:43.077Z,19.70
2019-04-25T00:12:14.690Z,23.30
2019-04-25T00:14:44.134Z,22.48
2019-04-25T00:17:13.100Z,19.85
2019-04-25T00:19:43.341Z,20.90
2019-04-25T00:22:16.700Z,19.70
2019-04-25T00:24:51.562Z,16.00
2019-04-25T00:27:21.686Z,21.10
2019-04-25T00:29:51.879Z,16.55
2019-04-25T00:32:21.638Z,16.90
2019-04-25T00:34:55.786Z,19.75
2019-04-25T00:37:24.448Z,20.05
2019-04-25T00:39:55.790Z,29.92
2019-04-25T00:42:24.525Z,26.60
2019-04-25T00:44:53.530Z,19.62
2019-04-25T00:47:22.280Z,21.45
2019-04-25T00:49:52.391Z,18.80
2019-04-25T00:52:22.759Z,18.02
2019-04-25T00:54:52.604Z,21.25
2019-04-25T00:57:22.502Z,18.55
2019-04-25T00:59:58.730Z,22.48
2019-04-25T01:02:35.169Z,17.95
2019-04-25T01:05:05.057Z,24.60
2019-04-25T01:07:34.530Z,18.85
2019-04-25T01:10:05.590Z,25.77
2019-04-25T01:12:34.242Z,27.35
2019-04-25T01:15:22.412Z,24.12
2019-04-25T01:17:52.210Z,24.02
2019-04-25T01:20:21.590Z,17.10
2019-04-25T01:22:51.360Z,21.95
2019-04-25T01:25:20.209Z,18.45
2019-04-25T01:27:49.717Z,20.88
2019-04-25T01:30:20.386Z,22.55
2019-04-25T01:32:50.619Z,20.95
2019-04-25T01:35:20.900Z,27.42
2019-04-25T01:37:51.184Z,22.65
2019-04-25T01:40:37.434Z,18.57
2019-04-25T01:43:23.706Z,19.90
2019-04-25T01:45:54.040Z,22.45
2019-04-25T01:48:23.497Z,21.70
2019-04-25T01:50:52.825Z,26.97
2019-04-25T01:53:24.137Z,26.90
2019-04-25T01:56:02.374Z,20.77
2019-04-25T01:58:25.521Z,29.32
2019-04-25T02:00:56.055Z,20.43
2019-04-25T02:03:27.101Z,24.70
2019-04-25T02:05:56.156Z,23.62
2019-04-25T02:08:25.788Z,17.85
2019-04-25T02:10:58.994Z,20.52
2019-04-25T02:13:33.626Z,19.07
2019-04-25T02:16:05.984Z,25.10
2019-04-25T02:18:34.624Z,28.83
2019-04-25T02:21:04.516Z,23.73
2019-04-25T02:23:34.148Z,19.98
2019-04-25T02:26:13.421Z,19.20
2019-04-25T02:28:33.805Z,32.08
2019-04-25T02:31:08.216Z,21.60
2019-04-25T02:33:40.783Z,20.23
2019-04-25T02:36:09.505Z,22.37
2019-04-25T02:38:39.621Z,27.45
2019-04-25T02:41:09.120Z,25.90
2019-04-25T02:43:38.189Z,20.08
2019-04-25T02:46:11.801Z,27.40
2019-04-25T02:48:51.236Z,26.93
2019-04-25T02:51:30.863Z,17.87
2019-04-25T02:54:07.833Z,16.45
2019-04-25T02:56:38.674Z,23.07
2019-04-25T02:59:08.798Z,20.80
2019-04-25T03:01:36.238Z,26.75
2019-04-25T03:04:10.719Z,21.27
2019-04-25T03:06:36.314Z,30.75
2019-04-25T03:09:09.818Z,25.52
2019-04-25T03:11:38.831Z,22.80
2019-04-25T03:14:10.029Z,22.60
2019-04-25T03:16:38.095Z,23.80
2019-04-25T03:19:26.330Z,26.35
2019-04-25T03:21:56.564Z,23.83
2019-04-25T03:24:27.159Z,24.57
2019-04-25T03:26:55.999Z,32.90
2019-04-25T03:29:24.879Z,25.25
2019-04-25T03:31:56.096Z,24.23
2019-04-25T03:34:29.246Z,15.58
2019-04-25T03:36:57.914Z,23.70
2019-04-25T03:39:27.113Z,21.40
2019-04-25T03:41:56.028Z,24.50
2019-04-25T03:44:25.374Z,20.75
2019-04-25T03:46:54.071Z,20.37
2019-04-25T03:49:23.853Z,19.95
2019-04-25T03:51:53.843Z,22.45
2019-04-25T03:54:23.588Z,17.75
2019-04-25T03:56:58.660Z,25.57
2019-04-25T03:59:27.339Z,20.82
2019-04-25T04:01:56.291Z,22.02
2019-04-25T04:04:25.312Z,21.85
2019-04-25T04:06:54.014Z,31.20
2019-04-25T04:09:24.032Z,24.65
2019-04-25T04:11:53.538Z,25.80
2019-04-25T04:14:23.957Z,22.15
2019-04-25T04:17:10.884Z,35.95
2019-04-25T04:19:57.211Z,22.75
2019-04-25T04:22:30.854Z,27.15
2019-04-25T04:25:27.157Z,34.95
2019-04-25T04:28:00.360Z,17.32
2019-04-25T04:30:45.377Z,21.57
2019-04-25T04:33:29.612Z,24.65
2019-04-25T04:35:49.854Z,25.62
2019-04-25T04:38:18.697Z,25.50
2019-04-25T04:40:49.484Z,26.85
2019-04-25T04:43:23.950Z,24.65
2019-04-25T04:45:54.163Z,27.73
2019-04-25T04:48:24.315Z,29.18
2019-04-25T04:50:58.545Z,37.42
2019-04-25T04:53:29.203Z,39.13
2019-04-25T04:56:04.178Z,23.20
2019-04-25T04:58:40.008Z,29.20
2019-04-25T05:01:08.666Z,26.97
2019-04-25T05:04:13.046Z,35.25
2019-04-25T05:07:01.222Z,24.18
2019-04-25T05:09:29.974Z,32.88
2019-04-25T05:11:58.660Z,32.58
2019-04-25T05:14:27.511Z,30.57
2019-04-25T05:16:59.366Z,34.43
2019-04-25T05:19:30.851Z,32.00
2019-04-25T05:21:59.612Z,34.63
2019-04-25T05:24:28.323Z,31.82
2019-04-25T05:26:57.019Z,39.45
2019-04-25T05:29:26.675Z,47.13
2019-04-25T05:31:58.307Z,49.23
2019-04-25T05:34:27.043Z,43.40
2019-04-25T05:36:56.336Z,47.40
2019-04-25T05:39:26.972Z,43.85
2019-04-25T05:42:00.334Z,48.40
2019-04-25T05:44:28.995Z,36.20
2019-04-25T05:46:57.661Z,33.63
2019-04-25T05:49:29.611Z,40.00
2019-04-25T05:51:59.506Z,32.03
2019-04-25T05:54:30.050Z,32.30
2019-04-25T05:57:05.237Z,37.58
2019-04-25T05:59:35.422Z,30.32
2019-04-25T06:02:07.396Z,29.30
2019-04-25T06:04:41.167Z,30.12
2019-04-25T06:07:14.364Z,27.77
2019-04-25T06:09:48.639Z,31.37
2019-04-25T06:12:26.208Z,31.60
2019-04-25T06:14:56.363Z,24.00
2019-04-25T06:17:30.151Z,26.82
2019-04-25T06:20:04.426Z,32.55
2019-04-25T06:22:50.836Z,25.65
2019-04-25T06:25:29.758Z,23.38
2019-04-25T06:27:58.566Z,28.67
2019-04-25T06:30:31.703Z,24.57
2019-04-25T06:33:00.579Z,29.72
2019-04-25T06:35:29.571Z,31.35
2019-04-25T06:37:58.319Z,27.25
2019-04-25T06:40:37.130Z,29.07
2019-04-25T06:43:13.632Z,33.05
2019-04-25T06:46:00.423Z,24.65
2019-04-25T06:48:39.594Z,26.85
2019-04-25T06:51:09.764Z,26.15
2019-04-25T06:53:38.512Z,25.32
2019-04-25T06:56:08.634Z,27.42
2019-04-25T06:58:39.283Z,24.75
2019-04-25T07:01:08.042Z,34.85
2019-04-25T07:03:41.763Z,27.00
2019-04-25T07:06:12.929Z,33.18
2019-04-25T07:08:43.001Z,23.60
2019-04-25T07:11:13.983Z,23.35
2019-04-25T07:13:44.006Z,26.70
2019-04-25T07:16:13.397Z,34.35
2019-04-25T07:18:44.115Z,27.67
2019-04-25T07:21:14.294Z,16.37
2019-04-25T07:24:04.160Z,22.02
2019-04-25T07:26:47.187Z,19.95
2019-04-25T07:29:20.250Z,19.77
2019-04-25T07:32:06.927Z,25.40
2019-04-25T07:34:35.597Z,24.85
2019-04-25T07:37:04.249Z,25.50
2019-04-25T07:39:34.374Z,24.65
2019-04-25T07:42:04.147Z,27.80
2019-04-25T07:44:41.997Z,26.60
2019-04-25T07:47:05.330Z,19.10
2019-04-25T07:49:34.839Z,23.73
2019-04-25T07:52:03.824Z,27.40
2019-04-25T07:54:34.051Z,23.42
2019-04-25T07:57:03.617Z,21.10
2019-04-25T07:59:34.812Z,21.68
2019-04-25T08:02:03.468Z,21.87
2019-04-25T08:04:32.205Z,29.65
2019-04-25T08:07:00.874Z,22.22
2019-04-25T08:09:29.620Z,19.48
2019-04-25T08:11:58.288Z,21.73
2019-04-25T08:14:32.065Z,19.82
2019-04-25T08:17:08.126Z,19.65
2019-04-25T08:19:37.177Z,24.20
2019-04-25T08:22:07.688Z,23.70
2019-04-25T08:24:46.659Z,22.30
2019-04-25T08:27:15.313Z,14.55
2019-04-25T08:29:45.560Z,16.02
2019-04-25T08:32:15.442Z,17.95
2019-04-25T08:34:46.723Z,23.87
2019-04-25T08:37:18.976Z,21.00
2019-04-25T08:39:45.956Z,17.48
2019-04-25T08:42:15.163Z,18.60
2019-04-25T08:44:44.942Z,29.90
2019-04-25T08:47:14.505Z,24.20
2019-04-25T08:49:49.611Z,30.48
2019-04-25T08:52:21.653Z,21.93
2019-04-25T08:55:04.328Z,25.82
2019-04-25T08:57:50.233Z,22.10
2019-04-25T09:00:24.116Z,20.65
2019-04-25T09:02:54.499Z,22.82
2019-04-25T09:05:37.427Z,22.07
2019-04-25T09:08:06.632Z,21.75
2019-04-25T09:10:41.278Z,23.60
2019-04-25T09:13:10.238Z,29.42
2019-04-25T09:15:39.456Z,25.37
2019-04-25T09:18:08.302Z,21.50
2019-04-25T09:20:46.643Z,23.15
2019-04-25T09:23:47.992Z,22.25
2019-04-25T09:26:30.227Z,23.77
2019-04-25T09:28:58.968Z,25.08
2019-04-25T09:31:29.479Z,26.68
2019-04-25T09:34:09.515Z,29.90
2019-04-25T09:36:38.324Z,30.97
2019-04-25T09:39:26.529Z,34.88
2019-04-25T09:41:55.315Z,28.62
2019-04-25T09:44:36.147Z,30.85
2019-04-25T09:47:06.327Z,24.60
2019-04-25T09:49:36.909Z,35.70
2019-04-25T09:52:08.180Z,31.48
2019-04-25T09:54:38.592Z,41.02
2019-04-25T09:57:13.437Z,32.42
2019-04-25T09:59:43.651Z,31.42
2019-04-25T10:02:13.448Z,35.38
2019-04-25T10:04:42.192Z,21.60
2019-04-25T10:07:12.003Z,29.63
2019-04-25T10:10:03.651Z,31.25
2019-04-25T10:12:41.325Z,31.10
2019-04-25T10:15:43.012Z,34.95
2019-04-25T10:18:18.466Z,33.55
2019-04-25T10:20:54.263Z,37.53
2019-04-25T10:24:00.733Z,29.45
2019-04-25T10:26:29.943Z,34.67
2019-04-25T10:29:03.598Z,31.57
2019-04-25T10:31:33.903Z,30.48
2019-04-25T10:34:03.819Z,31.75
2019-04-25T10:36:33.642Z,34.30
2019-04-25T10:39:08.625Z,32.95
2019-04-25T10:41:35.860Z,36.28
2019-04-25T10:44:05.616Z,40.17
2019-04-25T10:46:45.681Z,36.95
2019-04-25T10:49:14.501Z,29.72
2019-04-25T10:51:44.723Z,31.70
2019-04-25T10:54:14.564Z,37.65
2019-04-25T10:56:45.679Z,34.70
2019-04-25T10:59:15.705Z,35.70
2019-04-25T11:01:46.021Z,42.88
2019-04-25T11:04:16.514Z,31.02
2019-04-25T11:06:45.599Z,43.28
2019-04-25T11:09:19.110Z,43.30
2019-04-25T11:11:48.163Z,36.55
2019-04-25T11:14:23.943Z,40.45
2019-04-25T11:16:55.051Z,50.90
2019-04-25T11:19:23.960Z,41.00
2019-04-25T11:21:53.818Z,35.35
2019-04-25T11:24:24.539Z,39.23
2019-04-25T11:26:55.147Z,40.12
2019-04-25T11:29:24.275Z,52.23
2019-04-25T11:31:53.467Z,32.90
2019-04-25T11:34:23.052Z,43.50
2019-04-25T11:36:51.711Z,52.33
2019-04-25T11:39:28.042Z,43.00
2019-04-25T11:41:57.023Z,38.17
2019-04-25T11:44:25.697Z,39.73
2019-04-25T11:46:54.421Z,41.28
2019-04-25T11:49:23.895Z,41.53
2019-04-25T11:51:52.710Z,29.65
2019-04-25T11:54:21.376Z,37.58
2019-04-25T11:56:50.781Z,45.48
2019-04-25T11:59:23.540Z,36.80
2019-04-25T12:01:52.439Z,32.42
2019-04-25T12:04:21.337Z,39.20
2019-04-25T12:06:50.074Z,38.17
2019-04-25T12:09:20.238Z,47.08
2019-04-25T12:11:49.909Z,41.80
2019-04-25T12:14:18.906Z,37.13
2019-04-25T12:16:49.080Z,37.08
2019-04-25T12:19:18.256Z,36.85
2019-04-25T12:21:46.858Z,32.78
2019-04-25T12:24:15.601Z,42.60
2019-04-25T12:26:46.533Z,39.25
2019-04-25T12:29:14.856Z,48.48
2019-04-25T12:31:46.412Z,30.23
2019-04-25T12:34:15.009Z,39.63
2019-04-25T12:36:44.408Z,43.63
2019-04-25T12:39:13.995Z,31.77
2019-04-25T12:41:46.750Z,41.60
2019-04-25T12:44:33.732Z,52.13
2019-04-25T12:47:19.441Z,38.10
2019-04-25T12:49:50.583Z,40.05
2019-04-25T12:52:19.424Z,38.75
2019-04-25T12:54:49.765Z,49.67
2019-04-25T12:57:19.874Z,30.92
2019-04-25T12:59:51.124Z,33.13
2019-04-25T13:02:23.554Z,44.88
2019-04-25T13:05:04.350Z,36.77
2019-04-25T13:07:32.821Z,33.65
2019-04-25T13:10:01.470Z,42.73
2019-04-25T13:12:30.193Z,43.55
2019-04-25T13:14:58.898Z,36.00
2019-04-25T13:17:27.610Z,38.98
2019-04-25T13:19:56.736Z,40.80
2019-04-25T13:22:27.368Z,47.40
2019-04-25T13:25:07.101Z,42.03
2019-04-25T13:27:39.980Z,54.33
2019-04-25T13:30:19.910Z,36.68
2019-04-25T13:32:59.140Z,46.50
2019-04-25T13:35:29.922Z,40.30
2019-04-25T13:37:59.330Z,33.33
2019-04-25T13:40:28.066Z,46.20
2019-04-25T13:42:57.975Z,36.70
2019-04-25T13:45:26.950Z,44.90
2019-04-25T13:47:57.313Z,48.23
2019-04-25T13:50:26.164Z,30.02
2019-04-25T13:52:54.881Z,40.08
2019-04-25T13:55:24.028Z,47.00
2019-04-25T13:57:54.833Z,42.48
2019-04-25T14:00:26.070Z,43.58
2019-04-25T14:02:54.825Z,33.80
2019-04-25T14:05:24.938Z,31.97
2019-04-25T14:07:54.720Z,36.25
2019-04-25T14:10:25.179Z,45.65
2019-04-25T14:12:54.695Z,40.20
2019-04-25T14:15:25.448Z,32.65
2019-04-25T14:17:55.920Z,37.53
2019-04-25T14:20:32.690Z,39.70
2019-04-25T14:23:03.447Z,36.93
2019-04-25T14:25:33.118Z,36.15
2019-04-25T14:28:02.220Z,36.73
2019-04-25T14:30:34.217Z,45.05
2019-04-25T14:33:08.794Z,32.35
2019-04-25T14:35:37.666Z,43.45
2019-04-25T14:38:06.505Z,33.85
2019-04-25T14:40:35.229Z,41.02
2019-04-25T14:43:05.198Z,42.95
2019-04-25T14:45:44.011Z,31.95
2019-04-25T14:48:04.889Z,29.35
2019-04-25T14:50:34.117Z,39.38
2019-04-25T14:53:03.081Z,30.35
2019-04-25T14:55:36.405Z,41.60
2019-04-25T14:58:06.717Z,39.05
2019-04-25T15:00:42.759Z,31.90
2019-04-25T15:03:11.920Z,40.43
2019-04-25T15:05:41.957Z,28.32
2019-04-25T15:08:11.030Z,34.38
2019-04-25T15:10:40.949Z,31.75
2019-04-25T15:13:09.980Z,37.45
2019-04-25T15:15:38.625Z,37.25
2019-04-25T15:18:10.504Z,37.13
2019-04-25T15:20:39.134Z,39.42
2019-04-25T15:23:07.838Z,35.25
2019-04-25T15:25:37.035Z,33.15
2019-04-25T15:28:05.728Z,32.70
2019-04-25T15:30:36.029Z,44.15
2019-04-25T15:33:04.907Z,30.52
2019-04-25T15:35:35.199Z,37.73
2019-04-25T15:38:08.329Z,38.10
2019-04-25T15:40:41.669Z,35.20
2019-04-25T15:43:14.893Z,36.38
2019-04-25T15:45:45.200Z,44.03
2019-04-25T15:48:14.036Z,36.30
2019-04-25T15:50:43.074Z,36.42
2019-04-25T15:53:11.748Z,36.40
2019-04-25T15:55:40.812Z,45.28
2019-04-25T15:58:09.611Z,31.80
2019-04-25T16:00:38.964Z,37.75
2019-04-25T16:03:07.733Z,41.77
2019-04-25T16:05:36.994Z,38.02
2019-04-25T16:08:06.305Z,42.48
2019-04-25T16:10:34.980Z,37.20
2019-04-25T16:13:04.032Z,38.78
2019-04-25T16:15:33.220Z,30.75
2019-04-25T16:18:02.044Z,31.35
2019-04-25T16:20:31.466Z,47.27
2019-04-25T16:23:00.418Z,29.00
2019-04-25T16:25:29.969Z,33.98
2019-04-25T16:27:58.879Z,33.35
2019-04-25T16:30:32.548Z,35.98
2019-04-25T16:33:01.236Z,35.33
2019-04-25T16:35:30.943Z,27.42
2019-04-25T16:38:00.051Z,41.28
2019-04-25T16:40:29.835Z,32.80
2019-04-25T16:43:14.408Z,30.85
2019-04-25T16:45:46.091Z,32.08
2019-04-25T16:48:19.927Z,22.82
2019-04-25T16:50:48.639Z,25.43
2019-04-25T16:53:17.342Z,26.37
2019-04-25T16:55:45.879Z,26.20
2019-04-25T16:58:15.060Z,32.33
2019-04-25T17:00:48.273Z,34.18
2019-04-25T17:03:17.707Z,28.15
2019-04-25T17:05:46.557Z,31.55
2019-04-25T17:08:15.217Z,24.12
2019-04-25T17:10:47.198Z,27.13
2019-04-25T17:13:16.126Z,29.52
2019-04-25T17:15:46.578Z,33.80
2019-04-25T17:18:22.831Z,39.55
2019-04-25T17:21:05.076Z,34.15
2019-04-25T17:23:34.526Z,39.05
2019-04-25T17:26:04.551Z,34.27
2019-04-25T17:28:34.985Z,34.20
2019-04-25T17:31:20.667Z,26.40
2019-04-25T17:33:50.976Z,32.00
2019-04-25T17:36:38.639Z,39.78
2019-04-25T17:39:27.604Z,42.15
2019-04-25T17:41:56.380Z,37.67
2019-04-25T17:44:25.063Z,37.38
2019-04-25T17:47:05.653Z,46.10
2019-04-25T17:49:24.027Z,36.15
2019-04-25T17:51:58.824Z,39.30
2019-04-25T17:54:27.482Z,40.05
2019-04-25T17:56:56.418Z,34.15
2019-04-25T17:59:25.161Z,39.15
2019-04-25T18:01:59.423Z,35.52
2019-04-25T18:04:28.128Z,35.75
2019-04-25T18:06:56.829Z,29.55
2019-04-25T18:09:25.488Z,35.13
2019-04-25T18:11:54.201Z,35.00
2019-04-25T18:14:22.912Z,29.60
2019-04-25T18:16:57.767Z,25.00
2019-04-25T18:19:28.300Z,40.83
2019-04-25T18:21:58.631Z,30.68
2019-04-25T18:24:41.124Z,35.90
2019-04-25T18:27:29.790Z,40.00
2019-04-25T18:30:00.502Z,38.00
2019-04-25T18:32:31.640Z,42.17
2019-04-25T18:35:02.005Z,39.30
2019-04-25T18:37:32.409Z,38.98
2019-04-25T18:40:02.697Z,38.53
2019-04-25T18:42:36.512Z,35.63
2019-04-25T18:45:08.244Z,39.92
2019-04-25T18:47:38.277Z,38.88
2019-04-25T18:50:08.365Z,35.35
2019-04-25T18:52:45.019Z,29.02
2019-04-25T18:55:20.541Z,42.48
2019-04-25T18:57:53.838Z,36.33
2019-04-25T19:00:29.748Z,31.93
2019-04-25T19:03:06.197Z,36.90
2019-04-25T19:05:36.535Z,34.40
2019-04-25T19:08:06.602Z,45.00
2019-04-25T19:10:35.420Z,46.13
2019-04-25T19:13:12.494Z,33.25
2019-04-25T19:15:34.559Z,38.33
2019-04-25T19:18:03.478Z,33.78
2019-04-25T19:20:32.247Z,41.88
2019-04-25T19:23:01.002Z,36.35
2019-04-25T19:25:29.710Z,42.23
2019-04-25T19:27:58.363Z,38.08
2019-04-25T19:30:27.109Z,33.18
2019-04-25T19:32:55.798Z,35.60
2019-04-25T19:35:24.569Z,38.55
2019-04-25T19:37:55.864Z,30.17
2019-04-25T19:40:30.427Z,39.23
2019-04-25T19:43:03.782Z,29.35
2019-04-25T19:45:33.379Z,36.68
2019-04-25T19:48:02.294Z,34.88
2019-04-25T19:50:30.949Z,26.50
2019-04-25T19:52:59.658Z,33.58
2019-04-25T19:55:28.336Z,33.10
2019-04-25T19:57:57.077Z,33.20
2019-04-25T20:00:25.844Z,44.10
2019-04-25T20:03:11.228Z,38.53
2019-04-25T20:05:44.710Z,32.70
2019-04-25T20:08:17.984Z,32.55
2019-04-25T20:10:48.943Z,32.90
2019-04-25T20:13:17.860Z,41.77
2019-04-25T20:15:47.538Z,33.85
2019-04-25T20:18:16.715Z,35.60
2019-04-25T20:20:46.025Z,32.30
2019-04-25T20:23:14.943Z,43.90
2019-04-25T20:25:44.883Z,35.43
2019-04-25T20:28:14.025Z,42.70
2019-04-25T20:30:42.796Z,39.05
2019-04-25T20:33:11.506Z,32.83
2019-04-25T20:35:40.175Z,47.23
2019-04-25T20:38:08.917Z,48.00
2019-04-25T20:40:37.656Z,43.85
2019-04-25T20:43:06.324Z,39.42
2019-04-25T20:45:34.986Z,42.78
2019-04-25T20:48:03.799Z,35.60
2019-04-25T20:50:32.531Z,32.08
2019-04-25T20:53:01.174Z,39.05
2019-04-25T20:55:29.790Z,38.78
2019-04-25T20:57:58.370Z,41.23
2019-04-25T21:00:43.093Z,34.33
2019-04-25T21:03:11.863Z,36.25
2019-04-25T21:05:41.677Z,39.27
2019-04-25T21:08:10.366Z,42.80
2019-04-25T21:10:39.039Z,35.83
2019-04-25T21:13:09.338Z,41.60
2019-04-25T21:15:56.243Z,40.78
2019-04-25T21:18:26.665Z,46.10
2019-04-25T21:20:55.251Z,39.50
2019-04-25T21:23:24.166Z,28.12
2019-04-25T21:25:53.003Z,32.15
2019-04-25T21:28:21.736Z,40.30
2019-04-25T21:30:51.377Z,38.10
2019-04-25T21:33:20.748Z,47.85
2019-04-25T21:35:50.867Z,42.80
2019-04-25T21:38:19.891Z,40.40
2019-04-25T21:40:59.927Z,35.75
2019-04-25T21:43:35.674Z,43.95
2019-04-25T21:46:04.795Z,36.63
2019-04-25T21:48:33.818Z,34.45
2019-04-25T21:51:04.528Z,39.42
2019-04-25T21:53:33.209Z,34.08
2019-04-25T21:56:02.058Z,43.15
2019-04-25T21:58:33.899Z,36.17
2019-04-25T22:01:04.559Z,39.48
2019-04-25T22:03:33.282Z,42.17
2019-04-25T22:06:02.936Z,37.78
2019-04-25T22:08:31.956Z,35.23
2019-04-25T22:11:01.330Z,51.02
2019-04-25T22:13:30.193Z,42.83
2019-04-25T22:15:59.679Z,45.20
2019-04-25T22:18:29.312Z,36.88
2019-04-25T22:20:58.350Z,38.08
2019-04-25T22:23:27.358Z,46.25
2019-04-25T22:25:58.807Z,39.48
2019-04-25T22:28:28.082Z,56.60
2019-04-25T22:30:59.162Z,40.92
2019-04-25T22:33:29.886Z,39.45
2019-04-25T22:36:00.406Z,44.48
2019-04-25T22:38:29.284Z,41.65
2019-04-25T22:40:58.014Z,33.80
2019-04-25T22:43:29.875Z,42.15
2019-04-25T22:46:00.808Z,36.75
2019-04-25T22:48:35.200Z,35.45
2019-04-25T22:51:03.883Z,44.05
2019-04-25T22:53:34.095Z,51.15
2019-04-25T22:56:03.155Z,42.93
2019-04-25T22:58:31.820Z,40.88
2019-04-25T23:01:01.876Z,35.35
2019-04-25T23:03:35.611Z,43.78
2019-04-25T23:06:04.321Z,31.17
2019-04-25T23:08:34.315Z,34.78
2019-04-25T23:11:04.081Z,42.50
2019-04-25T23:13:32.899Z,43.00
2019-04-25T23:16:02.539Z,45.23
2019-04-25T23:18:32.398Z,38.17
2019-04-25T23:21:01.283Z,34.03
2019-04-25T23:23:32.338Z,50.75
2019-04-25T23:26:03.518Z,36.08
2019-04-25T23:28:40.944Z,42.75
2019-04-25T23:31:11.245Z,40.73
2019-04-25T23:33:40.012Z,40.08
2019-04-25T23:36:09.348Z,33.42
2019-04-25T23:38:38.024Z,39.67
2019-04-25T23:41:09.375Z,39.88
2019-04-25T23:43:38.318Z,35.30
2019-04-25T23:46:08.192Z,40.15
2019-04-25T23:48:37.083Z,40.17
2019-04-25T23:51:06.359Z,39.23
2019-04-25T23:53:35.566Z,40.75
2019-04-25T23:56:04.825Z,32.65
2019-04-25T23:58:33.602Z,40.63
